Time;durP1;ratioP1;P1;durP2;ratioP2;P2;SDS_P1;SDS_P2;PMS_P1;PMS_P2;Temp;Humidity;BMP_temperature;BMP_pressure;BME280_temperature;BME280_humidity;BME280_pressure;Samples;Min_cycle;Max_cycle;Signal;HPM_P1;HPM_P2
2023/03/22 00:01:21;;;;;;;8.70;6.47;;;;;;;;;;5046173;28;20123;-80
2023/03/22 00:03:49;;;;;;;9.05;6.53;;;;;;;;;;5043802;28;20045;-81
2023/03/22 00:06:17;;;;;;;7.38;6.32;;;;;;;;;;5042038;28;20033;-81
2023/03/22 00:08:45;;;;;;;8.93;5.95;;;;;;;;;;5040488;28;20041;-80
2023/03/22 00:11:12;;;;;;;11.30;5.57;;;;;;;;;;5032549;28;20120;-81
2023/03/22 00:13:41;;;;;;;6.65;5.47;;;;;;;;;;5020095;28;20037;-80
2023/03/22 00:16:10;;;;;;;10.30;6.30;;;;;;;;;;5033274;28;20084;-80
2023/03/22 00:18:37;;;;;;;14.57;6.53;;;;;;;;;;5044394;28;20049;-79
2023/03/22 00:21:05;;;;;;;11.35;6.28;;;;;;;;;;5028957;28;20057;-80
2023/03/22 00:23:32;;;;;;;7.32;6.03;;;;;;;;;;5043397;28;20047;-80
2023/03/22 00:26:00;;;;;;;10.30;6.85;;;;;;;;;;5044322;28;20045;-81
2023/03/22 00:28:28;;;;;;;10.85;7.03;;;;;;;;;;5041364;28;20073;-81
2023/03/22 00:30:59;;;;;;;12.27;7.47;;;;;;;;;;5045711;28;20491;-80
2023/03/22 00:33:27;;;;;;;14.40;7.70;;;;;;;;;;5036349;28;20092;-81
2023/03/22 00:35:59;;;;;;;11.77;8.15;;;;;;;;;;5023751;28;20053;-81
2023/03/22 00:38:35;;;;;;;12.40;7.45;;;;;;;;;;5046438;28;20049;-80
2023/03/22 00:41:12;;;;;;;11.07;7.15;;;;;;;;;;5020743;28;20549;-80
2023/03/22 00:43:39;;;;;;;10.85;6.97;;;;;;;;;;5024250;28;20045;-80
2023/03/22 00:46:07;;;;;;;10.25;7.07;;;;;;;;;;5040618;28;20052;-80
2023/03/22 00:48:35;;;;;;;9.18;7.43;;;;;;;;;;5039585;28;20055;-81
2023/03/22 00:51:02;;;;;;;10.13;6.10;;;;;;;;;;5041172;28;20044;-80
2023/03/22 00:53:32;;;;;;;8.95;6.90;;;;;;;;;;5023601;28;20498;-80
2023/03/22 00:55:59;;;;;;;8.05;5.55;;;;;;;;;;5039915;28;20060;-79
2023/03/22 00:58:31;;;;;;;6.90;6.07;;;;;;;;;;5025134;28;20061;-79
2023/03/22 01:00:58;;;;;;;9.30;6.47;;;;;;;;;;5027368;28;20079;-81
2023/03/22 01:03:26;;;;;;;10.43;6.10;;;;;;;;;;5030867;28;20075;-80
2023/03/22 01:05:54;;;;;;;8.90;7.28;;;;;;;;;;5031469;28;20470;-80
2023/03/22 01:08:23;;;;;;;8.50;6.28;;;;;;;;;;5032900;28;20108;-80
2023/03/22 01:10:50;;;;;;;7.22;6.35;;;;;;;;;;5027204;28;20067;-81
2023/03/22 01:13:17;;;;;;;7.93;6.57;;;;;;;;;;5046461;28;20409;-80
2023/03/22 01:15:46;;;;;;;8.25;6.82;;;;;;;;;;5024743;28;20053;-82
2023/03/22 01:18:14;;;;;;;11.63;6.90;;;;;;;;;;5023391;28;20045;-80
2023/03/22 01:20:41;;;;;;;7.78;6.35;;;;;;;;;;5043002;28;20095;-81
2023/03/22 01:23:09;;;;;;;9.27;6.38;;;;;;;;;;5032860;28;20057;-81
2023/03/22 01:25:36;;;;;;;6.88;6.20;;;;;;;;;;5034368;28;20076;-80
2023/03/22 01:28:05;;;;;;;10.80;7.28;;;;;;;;;;5032959;28;20041;-80
2023/03/22 01:30:33;;;;;;;13.65;7.28;;;;;;;;;;5027813;28;20124;-80
2023/03/22 01:33:01;;;;;;;10.18;7.50;;;;;;;;;;5027774;28;20064;-81
2023/03/22 01:35:29;;;;;;;10.82;8.05;;;;;;;;;;5030504;28;20049;-81
2023/03/22 01:37:57;;;;;;;13.55;7.95;;;;;;;;;;5030674;28;20537;-79
2023/03/22 01:40:25;;;;;;;13.07;7.93;;;;;;;;;;5023577;28;20107;-81
2023/03/22 01:42:54;;;;;;;13.75;9.60;;;;;;;;;;5020743;28;20103;-81
2023/03/22 01:45:22;;;;;;;15.75;10.20;;;;;;;;;;5030578;28;20044;-81
2023/03/22 01:47:54;;;;;;;14.60;10.88;;;;;;;;;;5025294;28;20052;-81
2023/03/22 01:50:22;;;;;;;12.05;9.38;;;;;;;;;;5019534;28;20052;-80
2023/03/22 01:52:50;;;;;;;15.68;10.45;;;;;;;;;;5025999;28;20395;-80
2023/03/22 01:55:24;;;;;;;13.73;10.88;;;;;;;;;;5023622;28;20405;-81
2023/03/22 01:58:04;;;;;;;13.85;9.13;;;;;;;;;;5024172;28;20459;-81
2023/03/22 02:00:41;;;;;;;11.32;9.10;;;;;;;;;;5023016;28;20099;-80
2023/03/22 02:03:35;;;;;;;8.80;7.75;;;;;;;;;;5031138;28;20107;-80
2023/03/22 02:06:03;;;;;;;8.40;7.53;;;;;;;;;;5026423;28;20044;-80
2023/03/22 02:08:32;;;;;;;8.43;7.32;;;;;;;;;;5029706;28;20091;-80
2023/03/22 02:11:04;;;;;;;7.65;6.38;;;;;;;;;;5013594;28;20454;-80
2023/03/22 02:13:54;;;;;;;7.57;6.50;;;;;;;;;;5016799;28;20045;-80
2023/03/22 02:16:41;;;;;;;6.97;6.20;;;;;;;;;;5037636;28;20048;-80
2023/03/22 02:19:31;;;;;;;8.38;6.05;;;;;;;;;;5033862;28;20044;-80
2023/03/22 02:22:02;;;;;;;13.88;6.97;;;;;;;;;;5044960;28;20507;-81
2023/03/22 02:24:36;;;;;;;7.90;6.38;;;;;;;;;;5026967;28;20782;-80
2023/03/22 02:27:15;;;;;;;8.43;6.80;;;;;;;;;;5047801;28;20056;-80
2023/03/22 02:29:48;;;;;;;8.43;6.72;;;;;;;;;;5045158;28;20067;-80
2023/03/22 02:32:54;;;;;;;8.32;6.43;;;;;;;;;;5027912;28;20076;-80
2023/03/22 02:35:36;;;;;;;7.60;6.80;;;;;;;;;;4956208;28;20054;-81
2023/03/22 02:38:22;;;;;;;8.48;7.18;;;;;;;;;;4954410;28;20514;-81
2023/03/22 02:41:09;;;;;;;8.80;7.43;;;;;;;;;;5023725;28;20445;-79
2023/03/22 02:43:55;;;;;;;7.68;6.90;;;;;;;;;;5048318;28;20045;-81
2023/03/22 02:46:44;;;;;;;11.77;7.40;;;;;;;;;;5051480;28;20063;-81
2023/03/22 02:49:21;;;;;;;8.90;7.22;;;;;;;;;;5028624;28;20394;-80
2023/03/22 02:51:58;;;;;;;8.57;6.63;;;;;;;;;;5033569;28;20051;-81
2023/03/22 02:54:33;;;;;;;9.82;7.15;;;;;;;;;;5035597;28;20111;-80
2023/03/22 02:57:22;;;;;;;8.38;7.47;;;;;;;;;;5035400;28;20138;-79
2023/03/22 02:59:51;;;;;;;9.65;7.55;;;;;;;;;;5028813;28;20106;-80
2023/03/22 03:02:20;;;;;;;9.57;7.20;;;;;;;;;;5033080;28;20045;-80
2023/03/22 03:04:49;;;;;;;8.50;7.43;;;;;;;;;;5056083;28;20343;-80
2023/03/22 03:07:18;;;;;;;10.55;7.28;;;;;;;;;;5060998;28;20053;-80
2023/03/22 03:09:46;;;;;;;8.32;7.10;;;;;;;;;;5038730;28;20052;-80
2023/03/22 03:12:21;;;;;;;7.55;6.65;;;;;;;;;;5034059;28;20048;-80
2023/03/22 03:14:51;;;;;;;9.13;6.93;;;;;;;;;;5017659;28;20049;-80
2023/03/22 03:17:19;;;;;;;11.13;6.63;;;;;;;;;;5032316;28;20144;-80
2023/03/22 03:20:08;;;;;;;6.53;5.93;;;;;;;;;;5028405;28;20488;-80
2023/03/22 03:22:57;;;;;;;9.02;6.78;;;;;;;;;;5044022;28;20422;-80
2023/03/22 03:25:30;;;;;;;7.55;5.90;;;;;;;;;;5053227;28;20045;-80
2023/03/22 03:28:04;;;;;;;8.30;6.68;;;;;;;;;;5026980;28;20049;-80
2023/03/22 03:30:39;;;;;;;9.10;6.82;;;;;;;;;;5033456;28;20045;-80
2023/03/22 03:33:15;;;;;;;7.53;6.82;;;;;;;;;;5052128;28;20437;-80
2023/03/22 03:35:57;;;;;;;7.55;6.47;;;;;;;;;;5054992;28;20049;-79
2023/03/22 03:38:26;;;;;;;7.82;6.30;;;;;;;;;;5033083;28;20511;-80
2023/03/22 03:40:57;;;;;;;7.93;6.55;;;;;;;;;;5051832;28;20502;-81
2023/03/22 03:43:24;;;;;;;7.57;6.03;;;;;;;;;;5053841;28;20090;-80
2023/03/22 03:45:52;;;;;;;7.25;6.50;;;;;;;;;;5035098;28;20037;-80
2023/03/22 03:48:26;;;;;;;6.93;6.15;;;;;;;;;;5036507;28;20045;-80
2023/03/22 03:50:55;;;;;;;11.98;6.57;;;;;;;;;;5057550;28;20064;-80
2023/03/22 03:53:23;;;;;;;9.60;7.03;;;;;;;;;;5033209;28;20160;-81
2023/03/22 03:55:50;;;;;;;7.88;6.43;;;;;;;;;;5027328;28;20551;-80
2023/03/22 03:58:18;;;;;;;8.98;6.32;;;;;;;;;;5028168;28;20489;-80
2023/03/22 04:00:47;;;;;;;9.25;6.28;;;;;;;;;;5031134;28;20057;-80
2023/03/22 04:03:32;;;;;;;7.10;6.22;;;;;;;;;;5028641;28;20060;-81
2023/03/22 04:06:12;;;;;;;7.97;6.82;;;;;;;;;;5051166;28;20060;-81
2023/03/22 04:08:44;;;;;;;11.23;8.07;;;;;;;;;;5027075;28;20041;-81
2023/03/22 04:11:15;;;;;;;12.93;10.35;;;;;;;;;;5034190;28;20045;-81
2023/03/22 04:13:44;;;;;;;11.40;7.90;;;;;;;;;;5045542;28;20434;-79
2023/03/22 04:16:16;;;;;;;9.75;7.85;;;;;;;;;;5029409;28;20056;-79
2023/03/22 04:18:43;;;;;;;14.07;11.63;;;;;;;;;;5024826;28;20045;-79
2023/03/22 04:21:15;;;;;;;11.50;7.40;;;;;;;;;;5029889;28;20045;-81
2023/03/22 04:24:01;;;;;;;9.45;6.97;;;;;;;;;;5027399;28;20095;-80
2023/03/22 04:26:34;;;;;;;6.93;6.18;;;;;;;;;;5027109;28;20045;-80
2023/03/22 04:29:20;;;;;;;7.53;5.75;;;;;;;;;;5026680;28;20107;-81
2023/03/22 04:31:53;;;;;;;9.52;6.85;;;;;;;;;;5026881;28;20041;-80
2023/03/22 04:34:23;;;;;;;8.45;6.50;;;;;;;;;;5027813;28;20051;-80
2023/03/22 04:36:57;;;;;;;7.07;6.38;;;;;;;;;;5024233;28;20069;-80
2023/03/22 04:39:36;;;;;;;11.30;7.20;;;;;;;;;;5028414;28;20056;-81
2023/03/22 04:42:22;;;;;;;7.07;6.38;;;;;;;;;;5040206;28;20147;-80
2023/03/22 04:44:59;;;;;;;7.90;6.97;;;;;;;;;;5023628;28;20045;-81
2023/03/22 04:47:26;;;;;;;10.18;7.20;;;;;;;;;;5046198;28;20049;-81
2023/03/22 04:49:54;;;;;;;10.80;8.20;;;;;;;;;;5029082;28;20098;-80
2023/03/22 04:52:21;;;;;;;10.35;8.20;;;;;;;;;;5025415;28;20090;-81
2023/03/22 04:54:52;;;;;;;11.75;8.23;;;;;;;;;;5031219;28;20053;-80
2023/03/22 04:57:20;;;;;;;9.38;7.70;;;;;;;;;;5032171;28;20048;-80
2023/03/22 04:59:48;;;;;;;10.20;7.63;;;;;;;;;;5033013;28;20329;-80
2023/03/22 05:02:15;;;;;;;10.57;8.23;;;;;;;;;;5029276;28;20080;-79
2023/03/22 05:04:43;;;;;;;9.25;7.70;;;;;;;;;;5033620;28;20554;-81
2023/03/22 05:07:27;;;;;;;12.45;7.72;;;;;;;;;;5034302;28;20586;-80
2023/03/22 05:09:57;;;;;;;10.73;7.47;;;;;;;;;;5031294;28;20044;-81
2023/03/22 05:12:25;;;;;;;10.07;8.07;;;;;;;;;;5029814;28;20398;-80
2023/03/22 05:14:59;;;;;;;10.45;7.57;;;;;;;;;;5034849;28;20045;-81
2023/03/22 05:17:32;;;;;;;13.10;7.43;;;;;;;;;;5030511;28;20049;-80
2023/03/22 05:20:08;;;;;;;10.90;7.85;;;;;;;;;;5033672;28;20056;-80
2023/03/22 05:22:39;;;;;;;10.05;8.07;;;;;;;;;;5028467;28;20444;-80
2023/03/22 05:25:10;;;;;;;11.80;8.00;;;;;;;;;;5031397;28;20110;-80
2023/03/22 05:27:41;;;;;;;11.98;7.68;;;;;;;;;;5032120;28;20056;-81
2023/03/22 05:30:23;;;;;;;13.63;8.07;;;;;;;;;;5031612;28;20049;-80
2023/03/22 05:32:58;;;;;;;11.50;8.20;;;;;;;;;;5027948;28;20041;-79
2023/03/22 05:35:26;;;;;;;10.93;8.07;;;;;;;;;;5030480;28;20075;-80
2023/03/22 05:37:56;;;;;;;10.85;7.68;;;;;;;;;;5032488;28;20045;-81
2023/03/22 05:40:26;;;;;;;14.55;8.57;;;;;;;;;;5033211;28;20052;-80
2023/03/22 05:42:55;;;;;;;8.55;7.07;;;;;;;;;;5028895;28;20067;-80
2023/03/22 05:45:25;;;;;;;12.70;8.45;;;;;;;;;;5028073;28;20037;-81
2023/03/22 05:48:22;;;;;;;10.82;7.80;;;;;;;;;;5025469;28;20046;-80
2023/03/22 05:50:49;;;;;;;11.80;8.20;;;;;;;;;;5021681;28;20437;-80
2023/03/22 05:53:17;;;;;;;10.73;8.07;;;;;;;;;;5029584;28;20133;-81
2023/03/22 05:55:51;;;;;;;11.57;7.88;;;;;;;;;;5024762;28;20111;-80
2023/03/22 05:58:19;;;;;;;9.40;7.78;;;;;;;;;;5032679;28;20049;-80
2023/03/22 06:00:50;;;;;;;10.02;8.10;;;;;;;;;;5025054;28;20044;-81
2023/03/22 06:03:21;;;;;;;10.45;8.48;;;;;;;;;;5045505;28;20045;-80
2023/03/22 06:06:09;;;;;;;9.70;8.02;;;;;;;;;;5028869;28;20451;-80
2023/03/22 06:08:54;;;;;;;12.68;7.50;;;;;;;;;;5028320;28;20044;-80
2023/03/22 06:11:40;;;;;;;12.57;8.23;;;;;;;;;;5048259;28;20049;-80
2023/03/22 06:14:08;;;;;;;8.68;7.82;;;;;;;;;;5031173;28;20055;-79
2023/03/22 06:16:52;;;;;;;11.10;9.30;;;;;;;;;;5034083;28;20121;-79
2023/03/22 06:19:19;;;;;;;9.57;8.02;;;;;;;;;;5033235;28;20049;-81
2023/03/22 06:21:47;;;;;;;14.70;9.00;;;;;;;;;;5034684;28;20060;-78
2023/03/22 06:24:16;;;;;;;16.48;8.38;;;;;;;;;;5026344;28;20045;-80
2023/03/22 06:26:44;;;;;;;10.77;8.20;;;;;;;;;;5032860;28;20041;-80
2023/03/22 06:29:12;;;;;;;9.93;8.48;;;;;;;;;;5030683;28;20410;-81
2023/03/22 06:31:39;;;;;;;12.20;7.75;;;;;;;;;;5032475;28;20041;-81
2023/03/22 06:34:08;;;;;;;9.38;7.15;;;;;;;;;;5029205;28;20045;-80
2023/03/22 06:36:39;;;;;;;14.70;7.82;;;;;;;;;;5027968;28;20656;-81
2023/03/22 06:39:11;;;;;;;10.60;6.95;;;;;;;;;;5032177;28;20041;-81
2023/03/22 06:41:43;;;;;;;7.13;6.35;;;;;;;;;;5020919;28;20064;-82
2023/03/22 06:44:21;;;;;;;7.63;6.70;;;;;;;;;;5028854;28;20053;-83
2023/03/22 06:46:51;;;;;;;10.23;6.65;;;;;;;;;;5043436;28;20041;-81
2023/03/22 06:49:39;;;;;;;9.02;6.05;;;;;;;;;;5043710;28;20056;-83
2023/03/22 06:52:07;;;;;;;9.38;5.97;;;;;;;;;;5024955;28;20064;-84
2023/03/22 06:54:35;;;;;;;7.05;6.07;;;;;;;;;;5025560;28;20061;-85
2023/03/22 06:57:03;;;;;;;9.88;5.95;;;;;;;;;;5024548;28;20502;-83
2023/03/22 06:59:31;;;;;;;7.10;6.25;;;;;;;;;;5037600;28;20131;-79
2023/03/22 07:01:58;;;;;;;7.30;5.82;;;;;;;;;;5024499;28;20059;-84
2023/03/22 07:04:26;;;;;;;6.95;6.32;;;;;;;;;;5048435;28;20036;-84
2023/03/22 07:06:55;;;;;;;8.23;7.35;;;;;;;;;;5045276;28;20564;-82
2023/03/22 07:09:25;;;;;;;10.32;6.75;;;;;;;;;;5032864;28;20049;-79
2023/03/22 07:11:56;;;;;;;8.05;5.60;;;;;;;;;;5030251;28;20136;-83
2023/03/22 07:14:24;;;;;;;7.38;5.97;;;;;;;;;;5026082;28;20041;-80
2023/03/22 07:17:07;;;;;;;8.43;6.35;;;;;;;;;;5029297;28;20087;-81
2023/03/22 07:19:34;;;;;;;10.45;6.57;;;;;;;;;;5035424;28;20045;-80
2023/03/22 07:22:06;;;;;;;;;;;;;;;;;;5034522;28;20061;-80
2023/03/22 07:24:34;;;;;;;11.55;7.32;;;;;;;;;;5028967;28;19920;-80
2023/03/22 07:27:11;;;;;;;10.50;7.00;;;;;;;;;;5018830;28;20037;-80
2023/03/22 07:29:38;;;;;;;7.63;6.80;;;;;;;;;;5018462;28;20831;-80
2023/03/22 07:32:11;;;;;;;7.32;5.82;;;;;;;;;;5036517;28;20107;-81
2023/03/22 07:34:55;;;;;;;8.35;6.53;;;;;;;;;;5028306;28;20042;-80
2023/03/22 07:37:23;;;;;;;8.13;6.57;;;;;;;;;;5027112;28;20491;-81
2023/03/22 07:39:51;;;;;;;6.63;5.40;;;;;;;;;;5021831;28;20037;-80
2023/03/22 07:42:20;;;;;;;7.50;5.97;;;;;;;;;;5016185;28;20057;-81
2023/03/22 07:45:09;;;;;;;7.25;5.93;;;;;;;;;;5041418;28;20111;-81
2023/03/22 07:47:43;;;;;;;6.25;5.65;;;;;;;;;;5042741;28;20041;-83
2023/03/22 07:50:37;;;;;;;10.02;5.45;;;;;;;;;;5026930;28;20043;-80
2023/03/22 07:53:06;;;;;;;13.35;6.00;;;;;;;;;;5004825;28;20427;-79
2023/03/22 07:55:34;;;;;;;6.53;5.82;;;;;;;;;;5025406;28;20055;-80
2023/03/22 07:58:01;;;;;;;6.88;5.78;;;;;;;;;;5021194;28;20470;-79
2023/03/22 08:00:29;;;;;;;9.82;5.60;;;;;;;;;;5040295;28;20103;-83
2023/03/22 08:03:20;;;;;;;7.38;5.85;;;;;;;;;;5051393;28;20102;-80
2023/03/22 08:06:03;;;;;;;8.55;5.60;;;;;;;;;;5024782;28;20056;-80
2023/03/22 08:08:31;;;;;;;11.25;6.18;;;;;;;;;;5014965;28;20055;-83
2023/03/22 08:10:59;;;;;;;8.07;6.22;;;;;;;;;;5015722;28;20362;-81
2023/03/22 08:13:27;;;;;;;6.82;6.10;;;;;;;;;;5024497;28;20100;-83
2023/03/22 08:15:55;;;;;;;6.80;6.10;;;;;;;;;;5025571;28;20148;-82
2023/03/22 08:18:23;;;;;;;6.93;6.30;;;;;;;;;;5030556;28;20072;-84
2023/03/22 08:20:53;;;;;;;5.95;5.43;;;;;;;;;;5020773;28;20049;-82
2023/03/22 08:23:20;;;;;;;7.15;6.45;;;;;;;;;;5023680;28;20053;-81
2023/03/22 08:26:23;;;;;;;11.93;6.38;;;;;;;;;;5044912;28;20049;-82
2023/03/22 08:28:53;;;;;;;6.68;6.03;;;;;;;;;;5024664;28;20041;-80
2023/03/22 08:31:21;;;;;;;6.40;5.80;;;;;;;;;;5023654;28;20042;-82
2023/03/22 08:33:49;;;;;;;10.00;6.38;;;;;;;;;;5028498;28;20049;-79
2023/03/22 08:36:18;;;;;;;6.43;5.82;;;;;;;;;;5022742;28;20052;-81
2023/03/22 08:38:52;;;;;;;7.72;6.70;;;;;;;;;;5043136;28;20135;-81
2023/03/22 08:41:27;;;;;;;6.43;5.80;;;;;;;;;;5025247;28;20075;-81
2023/03/22 08:43:55;;;;;;;8.35;6.30;;;;;;;;;;5025141;28;20048;-80
2023/03/22 08:46:22;;;;;;;7.68;5.88;;;;;;;;;;5048973;28;20055;-82
2023/03/22 08:48:51;;;;;;;7.75;5.95;;;;;;;;;;5020049;28;20045;-79
2023/03/22 08:51:25;;;;;;;9.90;6.38;;;;;;;;;;5022142;28;20042;-80
2023/03/22 08:54:12;;;;;;;6.93;6.25;;;;;;;;;;5021145;28;20049;-84
2023/03/22 08:56:52;;;;;;;8.93;6.00;;;;;;;;;;5038092;28;20411;-79
2023/03/22 08:59:43;;;;;;;23.48;12.93;;;;;;;;;;5030264;28;20057;-80
2023/03/22 09:02:33;;;;;;;12.05;5.93;;;;;;;;;;5020188;28;20054;-80
2023/03/22 09:05:02;;;;;;;7.65;5.97;;;;;;;;;;5027823;28;20121;-81
2023/03/22 09:07:30;;;;;;;10.82;6.22;;;;;;;;;;5030023;28;20037;-81
2023/03/22 09:10:06;;;;;;;6.72;5.38;;;;;;;;;;5028937;28;20514;-81
2023/03/22 09:12:36;;;;;;;6.53;5.63;;;;;;;;;;5025867;28;20037;-81
2023/03/22 09:15:05;;;;;;;6.38;5.78;;;;;;;;;;5021803;28;20064;-81
2023/03/22 09:17:33;;;;;;;30.75;17.13;;;;;;;;;;5030556;28;20048;-79
2023/03/22 09:20:02;;;;;;;10.75;5.55;;;;;;;;;;5010814;28;20045;-81
2023/03/22 09:22:41;;;;;;;5.07;4.65;;;;;;;;;;5011165;28;20095;-80
2023/03/22 09:25:10;;;;;;;6.72;5.60;;;;;;;;;;5027893;28;20158;-80
2023/03/22 09:27:42;;;;;;;10.30;6.82;;;;;;;;;;5014968;28;20047;-80
2023/03/22 09:30:10;;;;;;;4.88;4.47;;;;;;;;;;5032486;28;20047;-81
2023/03/22 09:32:37;;;;;;;6.25;5.65;;;;;;;;;;5052024;28;20063;-79
2023/03/22 09:35:07;;;;;;;5.97;5.45;;;;;;;;;;5043578;28;20057;-80
2023/03/22 09:37:53;;;;;;;5.70;4.95;;;;;;;;;;5037105;28;20509;-80
2023/03/22 09:40:22;;;;;;;7.30;4.65;;;;;;;;;;5033193;28;20049;-81
2023/03/22 09:42:51;;;;;;;5.63;5.03;;;;;;;;;;5017012;28;20199;-81
2023/03/22 09:45:29;;;;;;;6.07;5.43;;;;;;;;;;5048385;28;20083;-81
2023/03/22 09:47:58;;;;;;;7.28;5.05;;;;;;;;;;5054943;28;20552;-80
2023/03/22 09:50:28;;;;;;;8.27;5.20;;;;;;;;;;5048737;28;20053;-81
2023/03/22 09:52:55;;;;;;;5.35;4.72;;;;;;;;;;5048061;28;20044;-81
2023/03/22 09:55:22;;;;;;;5.15;4.75;;;;;;;;;;5047575;28;20079;-79
2023/03/22 09:58:06;;;;;;;6.03;5.35;;;;;;;;;;5047358;28;20482;-81
2023/03/22 10:00:49;;;;;;;6.25;4.85;;;;;;;;;;5045284;28;20064;-79
2023/03/22 10:03:23;;;;;;;7.15;5.10;;;;;;;;;;5045043;28;20045;-81
2023/03/22 10:05:57;;;;;;;7.30;5.03;;;;;;;;;;5050436;28;20080;-81
2023/03/22 10:08:32;;;;;;;5.30;4.80;;;;;;;;;;5030782;28;21278;-81
2023/03/22 10:11:00;;;;;;;6.75;5.57;;;;;;;;;;5063302;28;20036;-80
2023/03/22 10:13:33;;;;;;;5.80;5.30;;;;;;;;;;5063963;28;20063;-80
2023/03/22 10:16:06;;;;;;;6.22;5.70;;;;;;;;;;5055624;28;20109;-80
2023/03/22 10:18:38;;;;;;;7.20;5.35;;;;;;;;;;5051135;28;20486;-81
2023/03/22 10:21:10;;;;;;;5.78;5.00;;;;;;;;;;5049306;28;20040;-81
2023/03/22 10:23:38;;;;;;;5.50;5.00;;;;;;;;;;5049427;28;20052;-80
2023/03/22 10:26:07;;;;;;;5.65;5.15;;;;;;;;;;5048883;28;20117;-80
2023/03/22 10:28:39;;;;;;;5.47;4.97;;;;;;;;;;5050706;28;20055;-81
2023/03/22 10:31:11;;;;;;;5.50;5.00;;;;;;;;;;5049507;28;20041;-80
2023/03/22 10:33:48;;;;;;;5.53;4.97;;;;;;;;;;5048970;28;20098;-79
2023/03/22 10:36:18;;;;;;;5.53;4.75;;;;;;;;;;5049852;28;20057;-80
2023/03/22 10:38:48;;;;;;;4.78;4.38;;;;;;;;;;5049046;28;20132;-80
2023/03/22 10:41:17;;;;;;;5.95;4.93;;;;;;;;;;5047795;28;20061;-79
2023/03/22 10:43:47;;;;;;;5.88;5.25;;;;;;;;;;5048624;28;20091;-82
2023/03/22 10:46:18;;;;;;;5.50;5.07;;;;;;;;;;5029563;28;20641;-80
2023/03/22 10:48:47;;;;;;;6.38;5.70;;;;;;;;;;5030176;28;20041;-81
2023/03/22 10:51:19;;;;;;;8.68;5.35;;;;;;;;;;5031790;28;20045;-79
2023/03/22 10:53:46;;;;;;;;;;;;;;;;;;5065662;28;20060;-79
2023/03/22 10:56:17;;;;;;;5.43;4.93;;;;;;;;;;5051749;28;19924;-80
2023/03/22 10:58:45;;;;;;;5.37;4.97;;;;;;;;;;5061517;22;20045;-80
2023/03/22 11:01:14;;;;;;;5.97;5.38;;;;;;;;;;5042782;28;20140;-80
2023/03/22 11:03:43;;;;;;;5.28;4.88;;;;;;;;;;5043634;28;20041;-79
2023/03/22 11:06:10;;;;;;;4.97;4.57;;;;;;;;;;5043359;28;20060;-80
2023/03/22 11:08:58;;;;;;;4.90;4.50;;;;;;;;;;5043521;28;20041;-78
2023/03/22 11:11:27;;;;;;;11.38;5.45;;;;;;;;;;5043415;28;20592;-77
2023/03/22 11:14:06;;;;;;;5.15;4.63;;;;;;;;;;5046804;28;20119;-78
2023/03/22 11:16:42;;;;;;;5.38;4.88;;;;;;;;;;5047558;28;20083;-80
2023/03/22 11:19:14;;;;;;;5.03;4.53;;;;;;;;;;5046673;28;20045;-80
2023/03/22 11:21:42;;;;;;;4.95;4.55;;;;;;;;;;5047057;28;20041;-82
2023/03/22 11:24:12;;;;;;;5.25;4.75;;;;;;;;;;5047166;28;20580;-77
2023/03/22 11:26:40;;;;;;;5.07;4.18;;;;;;;;;;5047670;28;20410;-77
2023/03/22 11:29:18;;;;;;;4.10;3.80;;;;;;;;;;5046989;28;20048;-81
2023/03/22 11:31:54;;;;;;;4.15;3.85;;;;;;;;;;5046784;28;20059;-79
2023/03/22 11:34:25;;;;;;;4.18;3.83;;;;;;;;;;5045215;28;20079;-80
2023/03/22 11:36:58;;;;;;;6.25;3.75;;;;;;;;;;5046432;28;20564;-82
2023/03/22 11:39:27;;;;;;;3.55;3.35;;;;;;;;;;5046394;28;20072;-77
2023/03/22 11:42:00;;;;;;;4.47;4.07;;;;;;;;;;5041821;28;20124;-82
2023/03/22 11:44:32;;;;;;;5.03;4.07;;;;;;;;;;5045940;28;20061;-79
2023/03/22 11:47:01;;;;;;;4.30;4.00;;;;;;;;;;5046971;28;20094;-76
2023/03/22 11:49:37;;;;;;;9.90;8.90;;;;;;;;;;5045270;28;20040;-78
2023/03/22 11:52:10;;;;;;;4.20;3.80;;;;;;;;;;5044530;28;20083;-82
2023/03/22 11:54:41;;;;;;;4.38;3.97;;;;;;;;;;5046370;28;20103;-82
2023/03/22 11:57:15;;;;;;;5.55;4.68;;;;;;;;;;5046794;28;20073;-78
2023/03/22 11:59:47;;;;;;;6.65;4.35;;;;;;;;;;5046971;28;20049;-76
2023/03/22 12:02:22;;;;;;;4.20;3.75;;;;;;;;;;5028402;28;20080;-76
2023/03/22 12:04:56;;;;;;;4.10;3.70;;;;;;;;;;5029204;28;20087;-76
2023/03/22 12:07:24;;;;;;;5.00;3.88;;;;;;;;;;5045747;28;20053;-79
2023/03/22 12:09:58;;;;;;;4.05;3.67;;;;;;;;;;5046529;28;20051;-77
2023/03/22 12:12:29;;;;;;;4.18;3.78;;;;;;;;;;5028045;28;20041;-77
2023/03/22 12:15:06;;;;;;;4.25;3.85;;;;;;;;;;5046292;28;20041;-79
2023/03/22 12:17:36;;;;;;;4.30;3.90;;;;;;;;;;5046072;28;20040;-77
2023/03/22 12:20:17;;;;;;;5.68;4.28;;;;;;;;;;5046563;28;20493;-77
2023/03/22 12:22:49;;;;;;;4.38;4.00;;;;;;;;;;5046257;28;20048;-79
2023/03/22 12:25:19;;;;;;;4.28;3.85;;;;;;;;;;5034588;28;20467;-79
2023/03/22 12:28:10;;;;;;;4.82;4.40;;;;;;;;;;5040166;28;20041;-78
2023/03/22 12:30:42;;;;;;;5.00;4.63;;;;;;;;;;5031425;28;20056;-82
2023/03/22 12:33:17;;;;;;;4.70;4.22;;;;;;;;;;5041779;28;20064;-77
2023/03/22 12:35:45;;;;;;;4.20;3.80;;;;;;;;;;5039031;28;20084;-79
2023/03/22 12:38:18;;;;;;;4.63;3.70;;;;;;;;;;5036037;28;20045;-78
2023/03/22 12:40:47;;;;;;;5.43;4.00;;;;;;;;;;5037817;28;20120;-83
2023/03/22 12:43:33;;;;;;;4.45;4.05;;;;;;;;;;5020276;28;20072;-80
2023/03/22 12:46:02;;;;;;;5.75;4.35;;;;;;;;;;5040722;28;20804;-79
2023/03/22 12:48:36;;;;;;;4.63;4.30;;;;;;;;;;5039279;28;20045;-83
2023/03/22 12:51:08;;;;;;;4.18;3.83;;;;;;;;;;5022933;28;20491;-82
2023/03/22 12:53:41;;;;;;;4.60;4.30;;;;;;;;;;5040265;28;20040;-81
2023/03/22 12:56:32;;;;;;;5.25;4.00;;;;;;;;;;5044700;28;20048;-80
2023/03/22 12:59:02;;;;;;;3.97;3.30;;;;;;;;;;5010983;28;20068;-78
2023/03/22 13:01:36;;;;;;;4.40;4.00;;;;;;;;;;5039725;28;20133;-77
2023/03/22 13:04:33;;;;;;;3.85;3.55;;;;;;;;;;5039804;28;20053;-79
2023/03/22 13:07:09;;;;;;;3.80;3.50;;;;;;;;;;5024006;28;20056;-77
2023/03/22 13:09:42;;;;;;;4.00;3.70;;;;;;;;;;5042590;28;20037;-81
2023/03/22 13:12:15;;;;;;;3.30;3.03;;;;;;;;;;5045224;28;20052;-80
2023/03/22 13:14:49;;;;;;;4.35;3.75;;;;;;;;;;5044751;28;20098;-77
2023/03/22 13:17:22;;;;;;;5.57;3.40;;;;;;;;;;5041364;28;20084;-77
2023/03/22 13:20:14;;;;;;;7.03;6.40;;;;;;;;;;5041718;28;20052;-78
2023/03/22 13:22:41;;;;;;;6.18;3.33;;;;;;;;;;5031091;28;20055;-78
2023/03/22 13:25:11;;;;;;;3.35;3.13;;;;;;;;;;5037929;28;20404;-77
2023/03/22 13:27:45;;;;;;;5.97;3.22;;;;;;;;;;5038446;28;20046;-78
2023/03/22 13:30:31;;;;;;;3.75;3.20;;;;;;;;;;5024820;28;20049;-78
2023/03/22 13:33:07;;;;;;;4.07;2.22;;;;;;;;;;5041115;28;20499;-76
2023/03/22 13:35:43;;;;;;;3.10;2.67;;;;;;;;;;5043955;28;20470;-78
2023/03/22 13:38:24;;;;;;;3.17;2.28;;;;;;;;;;5040077;28;20055;-80
2023/03/22 13:41:03;;;;;;;2.83;2.63;;;;;;;;;;5040812;28;20051;-80
2023/03/22 13:43:43;;;;;;;3.10;2.80;;;;;;;;;;5024699;28;20132;-77
2023/03/22 13:46:20;;;;;;;3.05;2.80;;;;;;;;;;5041998;28;20407;-78
2023/03/22 13:48:49;;;;;;;3.50;3.17;;;;;;;;;;5042467;28;20073;-80
2023/03/22 13:51:24;;;;;;;3.83;2.58;;;;;;;;;;5043890;28;20041;-80
2023/03/22 13:54:10;;;;;;;3.67;3.38;;;;;;;;;;5043998;28;20048;-76
2023/03/22 13:56:55;;;;;;;3.42;3.08;;;;;;;;;;5044203;28;20068;-79
2023/03/22 13:59:29;;;;;;;3.30;3.00;;;;;;;;;;5031550;28;20045;-80
2023/03/22 14:02:14;;;;;;;3.08;2.90;;;;;;;;;;5035399;28;20041;-82
2023/03/22 14:05:00;;;;;;;3.63;3.00;;;;;;;;;;5042070;28;20044;-76
2023/03/22 14:07:30;;;;;;;4.57;3.08;;;;;;;;;;5041506;28;20498;-76
2023/03/22 14:10:04;;;;;;;2.53;2.33;;;;;;;;;;5042831;28;20114;-77
2023/03/22 14:12:46;;;;;;;3.25;2.85;;;;;;;;;;5035462;28;20072;-78
2023/03/22 14:15:36;;;;;;;2.50;2.30;;;;;;;;;;5035349;28;20050;-78
2023/03/22 14:18:26;;;;;;;2.47;2.38;;;;;;;;;;5038642;28;20045;-77
2023/03/22 14:20:57;;;;;;;3.22;2.50;;;;;;;;;;5041183;28;20049;-81
2023/03/22 14:23:28;;;;;;;3.42;3.13;;;;;;;;;;5038944;28;20063;-77
2023/03/22 14:25:59;;;;;;;3.15;2.90;;;;;;;;;;5035472;28;20483;-77
2023/03/22 14:28:33;;;;;;;2.90;2.70;;;;;;;;;;5038128;28;20025;-80
2023/03/22 14:31:00;;;;;;;2.67;2.20;;;;;;;;;;5037998;28;20029;-78
2023/03/22 14:33:29;;;;;;;2.10;2.00;;;;;;;;;;5037955;28;20052;-77
2023/03/22 14:36:00;;;;;;;2.20;2.00;;;;;;;;;;5030766;28;20029;-77
2023/03/22 14:38:31;;;;;;;3.35;2.55;;;;;;;;;;5036046;28;20025;-78
2023/03/22 14:41:08;;;;;;;2.60;2.40;;;;;;;;;;5038700;28;21552;-78
2023/03/22 14:43:34;;;;;;;6.30;2.78;;;;;;;;;;5030888;28;20022;-81
2023/03/22 14:46:21;;;;;;;2.70;2.50;;;;;;;;;;5030750;28;20403;-78
2023/03/22 14:48:53;;;;;;;2.80;2.60;;;;;;;;;;5041032;28;20056;-81
2023/03/22 14:51:22;;;;;;;4.70;2.38;;;;;;;;;;5041685;28;20522;-82
2023/03/22 14:53:49;;;;;;;2.90;1.98;;;;;;;;;;5045647;28;20115;-77
2023/03/22 14:56:23;;;;;;;2.05;1.95;;;;;;;;;;5024109;28;20460;-81
2023/03/22 14:58:51;;;;;;;5.53;2.67;;;;;;;;;;5043016;28;20033;-80
2023/03/22 15:01:21;;;;;;;3.67;2.88;;;;;;;;;;5040699;28;20559;-81
2023/03/22 15:03:49;;;;;;;2.05;1.95;;;;;;;;;;5037806;28;20742;-79
2023/03/22 15:06:15;;;;;;;3.40;2.55;;;;;;;;;;5042925;28;20102;-77
2023/03/22 15:08:45;;;;;;;3.00;2.65;;;;;;;;;;5041076;28;20025;-80
2023/03/22 15:11:11;;;;;;;2.85;2.53;;;;;;;;;;5038396;28;20560;-77
2023/03/22 15:13:40;;;;;;;4.28;2.53;;;;;;;;;;5037991;28;20199;-77
2023/03/22 15:16:08;;;;;;;4.63;4.22;;;;;;;;;;5033946;28;20104;-81